createdAt,value
2023-02-08T00:01:59.696Z,100542.97
2023-02-08T00:04:27.934Z,100540.38
2023-02-08T00:06:56.238Z,100533.53
2023-02-08T00:09:24.501Z,100534.50
2023-02-08T00:11:52.915Z,100536.63
2023-02-08T00:14:21.186Z,100524.22
2023-02-08T00:16:53.018Z,100527.63
2023-02-08T00:19:21.573Z,100526.25
2023-02-08T00:21:49.951Z,100525.59
2023-02-08T00:24:18.205Z,100528.56
2023-02-08T00:26:46.463Z,100532.50
2023-02-08T00:29:14.891Z,100528.56
2023-02-08T00:31:43.361Z,100525.50
2023-02-08T00:34:12.968Z,100525.19
2023-02-08T00:36:43.368Z,100521.53
2023-02-08T00:39:11.739Z,100519.31
2023-02-08T00:41:40.045Z,100521.13
2023-02-08T00:44:08.475Z,100520.72
2023-02-08T00:46:36.938Z,100517.97
2023-02-08T00:49:05.402Z,100521.25
2023-02-08T00:51:35.121Z,100502.78
2023-02-08T00:54:04.294Z,100519.13
2023-02-08T00:56:32.658Z,100527.63
2023-02-08T00:59:01.124Z,100532.72
2023-02-08T01:01:29.485Z,100535.16
2023-02-08T01:03:57.965Z,100534.75
2023-02-08T01:06:26.568Z,100531.22
2023-02-08T01:08:58.398Z,100536.09
2023-02-08T01:11:27.630Z,100523.22
2023-02-08T01:13:58.530Z,100535.78
2023-02-08T01:16:31.766Z,100527.13
2023-02-08T01:19:03.463Z,100531.47
2023-02-08T01:21:35.355Z,100520.19
2023-02-08T01:24:07.797Z,100516.63
2023-02-08T01:26:36.515Z,100521.91
2023-02-08T01:29:08.156Z,100528.47
2023-02-08T01:31:38.472Z,100521.03
2023-02-08T01:34:08.400Z,100519.78
2023-02-08T01:36:37.692Z,100510.00
2023-02-08T01:39:08.951Z,100509.66
2023-02-08T01:41:39.689Z,100507.31
2023-02-08T01:44:41.134Z,100503.75
2023-02-08T01:47:09.469Z,100501.09
2023-02-08T01:49:39.088Z,100496.91
2023-02-08T01:52:11.028Z,100496.91
2023-02-08T01:54:44.166Z,100490.59
2023-02-08T01:57:12.948Z,100483.75
2023-02-08T01:59:47.051Z,100466.41
2023-02-08T02:02:18.638Z,100488.47
2023-02-08T02:04:50.090Z,100464.72
2023-02-08T02:07:20.232Z,100484.66
2023-02-08T02:09:54.508Z,100490.00
2023-02-08T02:12:23.065Z,100480.88
2023-02-08T02:14:52.213Z,100486.41
2023-02-08T02:17:21.381Z,100471.44
2023-02-08T02:19:58.355Z,100466.38
2023-02-08T02:22:53.164Z,100462.31
2023-02-08T02:25:53.716Z,100460.50
2023-02-08T02:28:49.643Z,100452.81
2023-02-08T02:32:00.686Z,100461.69
2023-02-08T02:34:36.612Z,100457.19
2023-02-08T02:37:16.763Z,100457.59
2023-02-08T02:39:57.864Z,100466.94
2023-02-08T02:42:53.382Z,100464.97
2023-02-08T02:45:32.710Z,100461.84
2023-02-08T02:48:13.241Z,100464.19
2023-02-08T02:50:46.188Z,100462.16
2023-02-08T02:53:20.889Z,100461.28
2023-02-08T02:56:00.846Z,100460.50
2023-02-08T02:58:30.012Z,100465.03
2023-02-08T03:00:59.850Z,100458.50
2023-02-08T03:03:34.065Z,100468.91
2023-02-08T03:06:06.116Z,100471.53
2023-02-08T03:09:05.270Z,100469.59
2023-02-08T03:11:36.628Z,100457.72
2023-02-08T03:14:28.494Z,100457.31
2023-02-08T03:17:12.893Z,100463.88
2023-02-08T03:19:53.076Z,100468.38
2023-02-08T03:22:26.778Z,100466.34
2023-02-08T03:24:58.480Z,100458.59
2023-02-08T03:27:33.931Z,100469.44
2023-02-08T03:30:10.745Z,100466.13
2023-02-08T03:32:44.692Z,100459.81
2023-02-08T03:35:20.462Z,100467.28
2023-02-08T03:37:54.977Z,100460.56
2023-02-08T03:40:29.346Z,100441.19
2023-02-08T03:43:01.550Z,100469.97
2023-02-08T03:45:33.701Z,100464.97
2023-02-08T03:48:05.835Z,100466.88
2023-02-08T03:50:39.360Z,100469.41
2023-02-08T03:53:09.517Z,100473.66
2023-02-08T03:55:40.149Z,100474.44
2023-02-08T03:58:14.001Z,100469.19
2023-02-08T04:00:45.957Z,100475.72
2023-02-08T04:03:19.656Z,100475.53
2023-02-08T04:05:50.493Z,100480.38
2023-02-08T04:08:18.852Z,100470.25
2023-02-08T04:10:48.333Z,100473.06
2023-02-08T04:13:16.787Z,100478.34
2023-02-08T04:15:45.136Z,100471.56
2023-02-08T04:18:14.205Z,100471.84
2023-02-08T04:20:42.725Z,100454.56
2023-02-08T04:23:12.599Z,100458.78
2023-02-08T04:25:40.922Z,100467.47
2023-02-08T04:28:09.217Z,100459.78
2023-02-08T04:30:37.628Z,100471.00
2023-02-08T04:33:05.987Z,100464.19
2023-02-08T04:35:34.355Z,100465.03
2023-02-08T04:38:05.088Z,100464.47
2023-02-08T04:40:34.725Z,100466.22
2023-02-08T04:43:03.030Z,100457.16
2023-02-08T04:45:32.118Z,100462.00
2023-02-08T04:48:03.888Z,100457.75
2023-02-08T04:50:32.334Z,100465.13
2023-02-08T04:53:00.847Z,100453.38
2023-02-08T04:55:29.118Z,100458.78
2023-02-08T04:57:59.170Z,100457.91
2023-02-08T05:00:27.517Z,100445.63
2023-02-08T05:02:57.069Z,100445.41
2023-02-08T05:05:26.252Z,100445.44
2023-02-08T05:07:54.614Z,100441.75
2023-02-08T05:10:23.252Z,100439.53
2023-02-08T05:12:51.617Z,100442.97
2023-02-08T05:15:21.301Z,100444.84
2023-02-08T05:17:49.604Z,100430.56
2023-02-08T05:20:18.042Z,100437.09
2023-02-08T05:22:46.413Z,100440.16
2023-02-08T05:25:14.740Z,100437.16
2023-02-08T05:27:43.148Z,100437.59
2023-02-08T05:30:13.970Z,100440.03
2023-02-08T05:32:43.748Z,100441.09
2023-02-08T05:35:12.045Z,100441.56
2023-02-08T05:37:40.348Z,100444.91
2023-02-08T05:40:09.999Z,100441.97
2023-02-08T05:42:38.532Z,100448.50
2023-02-08T05:45:09.797Z,100442.69
2023-02-08T05:47:38.617Z,100444.13
2023-02-08T05:50:09.029Z,100445.38
2023-02-08T05:52:37.522Z,100433.88
2023-02-08T05:55:06.527Z,100448.56
2023-02-08T05:57:35.895Z,100449.44
2023-02-08T06:00:06.123Z,100452.41
2023-02-08T06:02:44.357Z,100440.44
2023-02-08T06:05:14.044Z,100442.16
2023-02-08T06:07:42.411Z,100433.72
2023-02-08T06:10:11.646Z,100424.75
2023-02-08T06:12:40.118Z,100458.00
2023-02-08T06:15:09.135Z,100451.50
2023-02-08T06:17:37.489Z,100432.81
2023-02-08T06:20:06.552Z,100458.38
2023-02-08T06:22:36.660Z,100456.94
2023-02-08T06:25:05.286Z,100459.19
2023-02-08T06:27:33.538Z,100461.84
2023-02-08T06:30:01.847Z,100454.50
2023-02-08T06:32:30.257Z,100432.38
2023-02-08T06:34:58.746Z,100457.41
2023-02-08T06:37:27.200Z,100461.94
2023-02-08T06:39:56.943Z,100458.75
2023-02-08T06:42:27.306Z,100464.81
2023-02-08T06:44:55.933Z,100462.72
2023-02-08T06:47:24.866Z,100459.59
2023-02-08T06:49:53.260Z,100462.22
2023-02-08T06:52:22.528Z,100472.19
2023-02-08T06:54:50.852Z,100467.44
2023-02-08T06:57:20.557Z,100470.28
2023-02-08T06:59:48.902Z,100473.03
2023-02-08T07:02:19.554Z,100479.91
2023-02-08T07:04:47.934Z,100476.63
2023-02-08T07:07:18.100Z,100482.38
2023-02-08T07:09:46.449Z,100477.84
2023-02-08T07:12:14.841Z,100478.22
2023-02-08T07:14:45.297Z,100485.38
2023-02-08T07:17:14.522Z,100489.81
2023-02-08T07:19:42.798Z,100480.59
2023-02-08T07:22:11.164Z,100478.13
2023-02-08T07:24:42.506Z,100480.13
2023-02-08T07:27:13.459Z,100480.41
2023-02-08T07:29:41.818Z,100490.13
2023-02-08T07:32:13.604Z,100483.16
2023-02-08T07:34:42.031Z,100487.28
2023-02-08T07:37:10.399Z,100488.06
2023-02-08T07:39:38.800Z,100487.84
2023-02-08T07:42:07.217Z,100480.28
2023-02-08T07:44:42.924Z,100488.97
2023-02-08T07:47:11.237Z,100485.56
2023-02-08T07:49:40.839Z,100482.44
2023-02-08T07:52:09.209Z,100473.72
2023-02-08T07:54:37.555Z,100485.72
2023-02-08T07:57:05.948Z,100478.28
2023-02-08T07:59:34.225Z,100465.78
2023-02-08T08:02:02.581Z,100469.63
2023-02-08T08:04:30.854Z,100473.75
2023-02-08T08:07:00.671Z,100472.41
2023-02-08T08:09:33.034Z,100471.41
2023-02-08T08:12:02.763Z,100477.47
2023-02-08T08:14:31.185Z,100470.03
2023-02-08T08:16:59.493Z,100469.09
2023-02-08T08:19:28.329Z,100458.94
2023-02-08T08:21:56.612Z,100456.09
2023-02-08T08:24:26.673Z,100463.94
2023-02-08T08:26:54.967Z,100471.34
2023-02-08T08:29:23.371Z,100471.31
2023-02-08T08:31:51.922Z,100433.34
2023-02-08T08:34:20.364Z,100473.03
2023-02-08T08:36:50.804Z,100467.47
2023-02-08T08:39:21.446Z,100462.09
2023-02-08T08:41:51.186Z,100464.09
2023-02-08T08:44:19.600Z,100469.81
2023-02-08T08:46:50.102Z,100459.13
2023-02-08T08:49:18.417Z,100461.25
2023-02-08T08:51:49.106Z,100458.47
2023-02-08T08:54:17.487Z,100462.16
2023-02-08T08:56:45.983Z,100456.59
2023-02-08T08:59:15.637Z,100452.00
2023-02-08T09:01:43.951Z,100463.88
2023-02-08T09:04:12.764Z,100452.72
2023-02-08T09:06:41.144Z,100450.91
2023-02-08T09:09:10.004Z,100451.66
2023-02-08T09:11:38.358Z,100426.53
2023-02-08T09:14:07.060Z,100464.59
2023-02-08T09:16:36.919Z,100451.78
2023-02-08T09:19:06.701Z,100452.13
2023-02-08T09:21:35.539Z,100450.50
2023-02-08T09:24:04.260Z,100451.09
2023-02-08T09:26:32.635Z,100452.69
2023-02-08T09:29:00.949Z,100451.84
2023-02-08T09:31:31.711Z,100457.28
2023-02-08T09:34:02.203Z,100458.75
2023-02-08T09:36:33.337Z,100454.81
2023-02-08T09:39:05.667Z,100444.47
2023-02-08T09:41:46.797Z,100450.78
2023-02-08T09:44:23.080Z,100448.44
2023-02-08T09:46:58.424Z,100443.00
2023-02-08T09:49:38.533Z,100443.25
2023-02-08T09:52:13.348Z,100436.81
2023-02-08T09:54:49.109Z,100441.38
2023-02-08T09:57:21.461Z,100450.03
2023-02-08T09:59:55.551Z,100440.06
2023-02-08T10:02:27.646Z,100442.81
2023-02-08T10:05:01.435Z,100444.16
2023-02-08T10:07:31.111Z,100450.69
2023-02-08T10:10:02.343Z,100445.34
2023-02-08T10:12:45.089Z,100451.28
2023-02-08T10:15:26.630Z,100448.47
2023-02-08T10:18:12.249Z,100453.09
2023-02-08T10:20:51.801Z,100451.97
2023-02-08T10:23:39.587Z,100434.13
2023-02-08T10:26:14.850Z,100424.84
2023-02-08T10:29:35.397Z,100429.66
2023-02-08T10:32:16.333Z,100395.41
2023-02-08T10:34:48.113Z,100404.94
2023-02-08T10:37:20.082Z,100414.41
2023-02-08T10:39:50.893Z,100405.00
2023-02-08T10:42:22.344Z,100393.38
2023-02-08T10:45:22.630Z,100400.44
2023-02-08T10:47:55.333Z,100405.66
2023-02-08T10:50:30.569Z,100399.53
2023-02-08T10:53:00.615Z,100399.09
2023-02-08T10:55:30.881Z,100401.75
2023-02-08T10:58:01.321Z,100397.16
2023-02-08T11:00:33.178Z,100394.63
2023-02-08T11:03:04.757Z,100374.50
2023-02-08T11:05:35.615Z,100386.81
2023-02-08T11:08:10.162Z,100386.31
2023-02-08T11:10:40.241Z,100368.56
2023-02-08T11:13:18.269Z,100367.69
2023-02-08T11:15:49.154Z,100359.53
2023-02-08T11:18:22.161Z,100364.00
2023-02-08T11:20:52.385Z,100354.91
2023-02-08T11:23:25.797Z,100363.50
2023-02-08T11:25:55.836Z,100353.63
2023-02-08T11:28:29.709Z,100350.25
2023-02-08T11:31:03.732Z,100347.63
2023-02-08T11:33:32.051Z,100343.66
2023-02-08T11:36:07.297Z,100345.91
2023-02-08T11:38:41.962Z,100337.53
2023-02-08T11:41:17.385Z,100331.97
2023-02-08T11:43:56.873Z,100337.88
2023-02-08T11:46:27.287Z,100329.25
2023-02-08T11:48:57.154Z,100321.78
2023-02-08T11:51:30.084Z,100329.09
2023-02-08T11:54:01.003Z,100315.91
2023-02-08T11:56:30.687Z,100323.09
2023-02-08T11:59:03.339Z,100319.69
2023-02-08T12:01:33.352Z,100313.63
2023-02-08T12:04:04.140Z,100308.97
2023-02-08T12:06:59.669Z,100300.50
2023-02-08T12:09:51.183Z,100311.25
2023-02-08T12:12:26.875Z,100298.59
2023-02-08T12:15:06.897Z,100307.63
2023-02-08T12:17:47.799Z,100302.84
2023-02-08T12:20:40.594Z,100301.06
2023-02-08T12:23:29.787Z,100304.53
2023-02-08T12:26:11.401Z,100301.63
2023-02-08T12:28:58.930Z,100270.97
2023-02-08T12:31:37.602Z,100278.59
2023-02-08T12:34:12.232Z,100280.63
2023-02-08T12:37:12.364Z,100275.56
2023-02-08T12:40:09.502Z,100268.44
2023-02-08T12:42:53.058Z,100261.50
2023-02-08T12:45:54.001Z,100263.78
2023-02-08T12:48:35.396Z,100255.31
2023-02-08T12:51:17.147Z,100243.25
2023-02-08T12:53:51.857Z,100239.22
2023-02-08T12:56:25.880Z,100247.09
2023-02-08T12:59:08.270Z,100237.28
2023-02-08T13:01:45.738Z,100235.09
2023-02-08T13:04:21.752Z,100234.13
2023-02-08T13:06:54.132Z,100232.03
2023-02-08T13:09:37.144Z,100214.59
2023-02-08T13:12:09.765Z,100223.00
2023-02-08T13:14:46.249Z,100207.50
2023-02-08T13:17:20.196Z,100214.25
2023-02-08T13:20:00.810Z,100196.94
2023-02-08T13:22:35.586Z,100192.03
2023-02-08T13:25:14.670Z,100201.00
2023-02-08T13:27:43.019Z,100195.69
2023-02-08T13:30:22.473Z,100188.25
2023-02-08T13:32:52.496Z,100192.75
2023-02-08T13:35:28.402Z,100187.00
2023-02-08T13:38:03.401Z,100186.69
2023-02-08T13:40:34.926Z,100180.34
2023-02-08T13:43:10.738Z,100176.38
2023-02-08T13:45:43.545Z,100179.00
2023-02-08T13:48:15.828Z,100175.47
2023-02-08T13:50:51.074Z,100156.97
2023-02-08T13:53:20.301Z,100170.09
2023-02-08T13:55:57.906Z,100165.09
2023-02-08T13:59:05.922Z,100161.59
2023-02-08T14:01:37.082Z,100177.19
2023-02-08T14:04:36.361Z,100170.88
2023-02-08T14:07:13.508Z,100182.31
2023-02-08T14:10:00.522Z,100176.56
2023-02-08T14:12:35.961Z,100173.19
2023-02-08T14:15:28.103Z,100175.03
2023-02-08T14:17:59.754Z,100174.38
2023-02-08T14:20:32.559Z,100174.94
2023-02-08T14:23:03.608Z,100170.16
2023-02-08T14:25:41.983Z,100176.31
2023-02-08T14:28:32.150Z,100175.69
2023-02-08T14:31:07.231Z,100170.78
2023-02-08T14:33:47.937Z,100174.88
2023-02-08T14:36:31.453Z,100169.41
2023-02-08T14:39:08.823Z,100170.56
2023-02-08T14:41:54.315Z,100164.81
2023-02-08T14:45:03.497Z,100159.19
2023-02-08T14:48:18.563Z,100156.94
2023-02-08T14:51:02.947Z,100162.72
2023-02-08T14:53:40.553Z,100155.88
2023-02-08T14:56:17.325Z,100146.56
2023-02-08T14:58:49.775Z,100161.50
2023-02-08T15:01:21.062Z,100155.19
2023-02-08T15:03:51.608Z,100149.84
2023-02-08T15:06:49.869Z,100161.59
2023-02-08T15:11:58.306Z,100155.56
2023-02-08T15:14:32.018Z,100157.34
2023-02-08T15:17:01.250Z,100144.16
2023-02-08T15:19:34.106Z,100152.47
2023-02-08T15:22:29.279Z,100145.69
2023-02-08T15:25:01.444Z,100145.47
2023-02-08T15:27:34.481Z,100153.44
2023-02-08T15:30:03.490Z,100144.47
2023-02-08T15:32:31.910Z,100152.75
2023-02-08T15:35:03.346Z,100147.22
2023-02-08T15:37:34.821Z,100140.72
2023-02-08T15:40:04.559Z,100134.81
2023-02-08T15:42:34.755Z,100144.25
2023-02-08T15:45:04.491Z,100151.34
2023-02-08T15:47:35.828Z,100148.88
2023-02-08T15:50:07.673Z,100133.69
2023-02-08T15:52:38.415Z,100147.47
2023-02-08T15:55:08.493Z,100144.22
2023-02-08T15:57:43.975Z,100130.06
2023-02-08T16:00:17.470Z,100138.44
2023-02-08T16:02:53.198Z,100136.53
2023-02-08T16:05:25.794Z,100136.94
2023-02-08T16:07:56.181Z,100133.28
2023-02-08T16:10:30.757Z,100146.28
2023-02-08T16:13:01.945Z,100138.97
2023-02-08T16:15:38.863Z,100140.56
2023-02-08T16:18:27.577Z,100145.16
2023-02-08T16:20:58.653Z,100137.13
2023-02-08T16:23:30.840Z,100149.06
2023-02-08T16:26:10.664Z,100159.13
2023-02-08T16:28:40.287Z,100150.19
2023-02-08T16:31:09.164Z,100152.00
2023-02-08T16:33:39.531Z,100153.00
2023-02-08T16:36:08.071Z,100153.94
2023-02-08T16:38:37.717Z,100154.75
2023-02-08T16:41:13.684Z,100149.75
2023-02-08T16:43:43.922Z,100156.84
2023-02-08T16:46:22.311Z,100155.41
2023-02-08T16:48:53.016Z,100158.41
2023-02-08T16:51:24.867Z,100129.13
2023-02-08T16:53:57.296Z,100159.41
2023-02-08T16:56:25.940Z,100161.13
2023-02-08T16:58:54.270Z,100168.91
2023-02-08T17:01:24.260Z,100165.63
2023-02-08T17:03:53.260Z,100169.56
2023-02-08T17:06:29.110Z,100170.00
2023-02-08T17:08:58.966Z,100175.63
2023-02-08T17:11:27.471Z,100178.31
2023-02-08T17:13:55.805Z,100174.78
2023-02-08T17:16:26.377Z,100171.56
2023-02-08T17:18:58.186Z,100181.34
2023-02-08T17:21:27.253Z,100180.81
2023-02-08T17:23:55.653Z,100188.72
2023-02-08T17:26:27.697Z,100190.09
2023-02-08T17:28:57.175Z,100182.25
2023-02-08T17:31:26.004Z,100182.84
2023-02-08T17:33:54.456Z,100174.50
2023-02-08T17:36:22.806Z,100191.22
2023-02-08T17:38:52.254Z,100190.72
2023-02-08T17:41:21.785Z,100192.28
2023-02-08T17:43:53.382Z,100196.41
2023-02-08T17:46:25.101Z,100184.81
2023-02-08T17:48:53.886Z,100185.13
2023-02-08T17:51:24.308Z,100179.78
2023-02-08T17:53:53.013Z,100189.31
2023-02-08T17:56:23.233Z,100182.16
2023-02-08T17:58:54.100Z,100184.69
2023-02-08T18:01:24.789Z,100191.19
2023-02-08T18:03:54.455Z,100193.97
2023-02-08T18:06:24.893Z,100196.34
2023-02-08T18:08:53.509Z,100190.53
2023-02-08T18:11:23.438Z,100194.25
2023-02-08T18:13:54.781Z,100187.09
2023-02-08T18:16:25.819Z,100183.38
2023-02-08T18:18:56.379Z,100190.09
2023-02-08T18:21:25.460Z,100182.34
2023-02-08T18:23:55.216Z,100179.81
2023-02-08T18:26:25.793Z,100182.16
2023-02-08T18:28:55.686Z,100185.53
2023-02-08T18:31:25.392Z,100184.47
2023-02-08T18:33:54.166Z,100178.59
2023-02-08T18:36:23.665Z,100182.03
2023-02-08T18:38:55.539Z,100184.59
2023-02-08T18:41:26.103Z,100170.97
2023-02-08T18:43:57.511Z,100180.56
2023-02-08T18:46:29.145Z,100183.50
2023-02-08T18:48:57.948Z,100182.91
2023-02-08T18:51:27.287Z,100180.53
2023-02-08T18:53:58.372Z,100187.81
2023-02-08T18:56:28.809Z,100175.50
2023-02-08T18:59:00.528Z,100177.31
2023-02-08T19:01:28.933Z,100170.56
2023-02-08T19:03:57.420Z,100181.00
2023-02-08T19:06:27.393Z,100187.72
2023-02-08T19:08:58.328Z,100184.94
2023-02-08T19:11:29.214Z,100190.16
2023-02-08T19:14:01.812Z,100194.47
2023-02-08T19:16:32.079Z,100183.34
2023-02-08T19:19:01.259Z,100194.66
2023-02-08T19:21:30.811Z,100197.22
2023-02-08T19:24:00.605Z,100180.31
2023-02-08T19:26:32.593Z,100182.69
2023-02-08T19:29:06.725Z,100187.75
2023-02-08T19:31:35.686Z,100191.84
2023-02-08T19:34:04.979Z,100190.91
2023-02-08T19:36:38.337Z,100188.69
2023-02-08T19:39:07.727Z,100190.97
2023-02-08T19:41:38.374Z,100190.16
2023-02-08T19:44:10.198Z,100191.00
2023-02-08T19:46:39.621Z,100198.94
2023-02-08T19:49:08.180Z,100200.28
2023-02-08T19:51:37.162Z,100186.09
2023-02-08T19:54:10.092Z,100189.34
2023-02-08T19:56:38.452Z,100184.31
2023-02-08T19:59:09.851Z,100174.56
2023-02-08T20:01:38.223Z,100195.28
2023-02-08T20:04:06.752Z,100189.38
2023-02-08T20:06:38.709Z,100081.31
2023-02-08T20:09:07.951Z,100187.00
2023-02-08T20:11:45.102Z,100169.03
2023-02-08T20:14:25.430Z,100182.66
2023-02-08T20:16:54.077Z,100185.75
2023-02-08T20:19:22.537Z,100181.78
2023-02-08T20:21:50.957Z,100172.59
2023-02-08T20:24:19.378Z,100174.16
2023-02-08T20:26:49.275Z,100174.78
2023-02-08T20:29:18.173Z,100179.25
2023-02-08T20:31:51.964Z,100172.06
2023-02-08T20:34:20.774Z,100172.13
2023-02-08T20:37:05.744Z,100180.72
2023-02-08T20:39:44.055Z,100176.28
2023-02-08T20:42:12.737Z,100180.50
2023-02-08T20:44:41.167Z,100167.22
2023-02-08T20:47:11.009Z,100186.56
2023-02-08T20:49:40.145Z,100186.44
2023-02-08T20:52:08.650Z,100175.31
2023-02-08T20:54:38.336Z,100184.38
2023-02-08T20:57:07.188Z,100185.56
2023-02-08T20:59:35.793Z,100180.25
2023-02-08T21:02:05.599Z,100186.28
2023-02-08T21:04:35.964Z,100181.44
2023-02-08T21:07:04.322Z,100189.47
2023-02-08T21:09:32.751Z,100163.66
2023-02-08T21:12:01.684Z,100185.06
2023-02-08T21:14:30.238Z,100186.75
2023-02-08T21:16:59.272Z,100184.44
2023-02-08T21:19:30.253Z,100179.00
2023-02-08T21:22:02.005Z,100182.16
2023-02-08T21:24:32.682Z,100175.53
2023-02-08T21:27:01.917Z,100159.09
2023-02-08T21:29:32.642Z,100174.66
2023-02-08T21:32:01.302Z,100151.72
2023-02-08T21:34:29.825Z,100168.72
2023-02-08T21:36:58.125Z,100167.31
2023-02-08T21:39:27.821Z,100172.16
2023-02-08T21:41:56.305Z,100168.66
2023-02-08T21:44:24.768Z,100162.38
2023-02-08T21:46:53.261Z,100134.31
2023-02-08T21:49:39.425Z,100162.00
2023-02-08T21:52:25.102Z,100165.00
2023-02-08T21:54:55.092Z,100158.72
2023-02-08T21:57:25.823Z,100157.59
2023-02-08T22:02:38.819Z,100152.91
2023-02-08T22:05:07.757Z,100152.16
2023-02-08T22:07:44.877Z,100141.81
2023-02-08T22:10:15.585Z,100152.31
2023-02-08T22:12:44.091Z,100149.19
2023-02-08T22:15:14.950Z,100148.44
2023-02-08T22:17:44.794Z,100149.28
2023-02-08T22:20:14.478Z,100147.09
2023-02-08T22:22:42.827Z,100140.66
2023-02-08T22:25:11.111Z,100107.53
2023-02-08T22:27:41.091Z,100128.72
2023-02-08T22:30:12.718Z,100128.00
2023-02-08T22:32:41.716Z,100132.56
2023-02-08T22:35:13.108Z,100133.63
2023-02-08T22:37:41.728Z,100141.75
2023-02-08T22:40:11.981Z,100141.81
2023-02-08T22:42:40.973Z,100135.31
2023-02-08T22:45:10.615Z,100135.78
2023-02-08T22:47:39.415Z,100131.81
2023-02-08T22:50:09.216Z,100128.31
2023-02-08T22:52:39.275Z,100126.06
2023-02-08T22:55:08.131Z,100129.50
2023-02-08T22:57:37.436Z,100123.22
2023-02-08T23:00:07.761Z,100117.56
2023-02-08T23:02:36.480Z,100126.09
2023-02-08T23:05:05.058Z,100115.25
2023-02-08T23:07:33.561Z,100099.47
2023-02-08T23:10:03.425Z,100105.41
2023-02-08T23:12:31.828Z,100114.88
2023-02-08T23:15:00.349Z,100107.69
2023-02-08T23:17:28.668Z,100116.41
2023-02-08T23:19:56.940Z,100115.25
2023-02-08T23:22:25.201Z,100121.00
2023-02-08T23:24:55.375Z,100120.00
2023-02-08T23:27:25.088Z,100119.41
2023-02-08T23:29:53.621Z,100122.28
2023-02-08T23:32:22.071Z,100124.22
2023-02-08T23:34:50.534Z,100123.16
2023-02-08T23:37:18.867Z,100116.03
2023-02-08T23:39:47.310Z,100116.47
2023-02-08T23:42:26.213Z,100113.53
2023-02-08T23:44:57.259Z,100116.09
2023-02-08T23:47:27.263Z,100106.25
2023-02-08T23:49:55.621Z,100107.97
2023-02-08T23:52:24.000Z,100115.25
2023-02-08T23:54:52.814Z,100109.22
2023-02-08T23:57:21.137Z,100102.19
2023-02-08T23:59:49.629Z,100106.66
